sensor_id;sensor_type;location;lat;lon;timestamp;temperature;humidity
13123;DHT22;6627;50.920;12.050;2024-03-23T00:54:36;7.70;99.90
13123;DHT22;6627;50.920;12.050;2024-03-23T00:57:02;7.80;99.90
13123;DHT22;6627;50.920;12.050;2024-03-23T01:01:57;7.60;99.90
13123;DHT22;6627;50.920;12.050;2024-03-23T01:04:24;7.60;99.90
13123;DHT22;6627;50.920;12.050;2024-03-23T01:06:50;7.60;99.90
13123;DHT22;6627;50.920;12.050;2024-03-23T01:09:17;7.60;99.90
13123;DHT22;6627;50.920;12.050;2024-03-23T01:11:45;7.60;99.90
13123;DHT22;6627;50.920;12.050;2024-03-23T01:14:12;7.60;99.90
13123;DHT22;6627;50.920;12.050;2024-03-23T01:16:38;7.60;99.90
13123;DHT22;6627;50.920;12.050;2024-03-23T01:19:06;7.70;99.90
13123;DHT22;6627;50.920;12.050;2024-03-23T01:21:33;7.70;99.90
13123;DHT22;6627;50.920;12.050;2024-03-23T01:23:59;7.80;99.90
13123;DHT22;6627;50.920;12.050;2024-03-23T01:28:55;7.80;99.90
13123;DHT22;6627;50.920;12.050;2024-03-23T01:31:22;7.70;99.90
13123;DHT22;6627;50.920;12.050;2024-03-23T01:33:48;7.80;99.90
13123;DHT22;6627;50.920;12.050;2024-03-23T01:36:15;7.80;99.90
13123;DHT22;6627;50.920;12.050;2024-03-23T01:38:41;7.90;99.90
13123;DHT22;6627;50.920;12.050;2024-03-23T01:41:09;8.00;99.90
13123;DHT22;6627;50.920;12.050;2024-03-23T01:43:35;8.00;99.90
13123;DHT22;6627;50.920;12.050;2024-03-23T01:46:04;8.00;99.90
13123;DHT22;6627;50.920;12.050;2024-03-23T01:48:30;8.00;99.90
13123;DHT22;6627;50.920;12.050;2024-03-23T01:50:57;8.00;99.90
13123;DHT22;6627;50.920;12.050;2024-03-23T01:53:25;8.00;99.90
13123;DHT22;6627;50.920;12.050;2024-03-23T01:55:52;8.00;99.90
13123;DHT22;6627;50.920;12.050;2024-03-23T01:58:19;8.00;99.90
13123;DHT22;6627;50.920;12.050;2024-03-23T02:00:46;8.10;99.90
13123;DHT22;6627;50.920;12.050;2024-03-23T02:03:23;8.20;99.90
13123;DHT22;6627;50.920;12.050;2024-03-23T02:05:52;8.30;99.90
13123;DHT22;6627;50.920;12.050;2024-03-23T02:08:20;8.30;99.90
13123;DHT22;6627;50.920;12.050;2024-03-23T02:10:49;8.30;99.90
13123;DHT22;6627;50.920;12.050;2024-03-23T02:13:17;8.40;99.90
13123;DHT22;6627;50.920;12.050;2024-03-23T02:15:45;8.50;99.90
13123;DHT22;6627;50.920;12.050;2024-03-23T02:18:11;8.50;99.90
13123;DHT22;6627;50.920;12.050;2024-03-23T02:20:40;8.50;99.90
13123;DHT22;6627;50.920;12.050;2024-03-23T02:23:14;8.50;99.90
13123;DHT22;6627;50.920;12.050;2024-03-23T02:25:42;8.50;99.90
13123;DHT22;6627;50.920;12.050;2024-03-23T02:28:08;8.50;99.90
13123;DHT22;6627;50.920;12.050;2024-03-23T02:30:36;8.60;99.90
13123;DHT22;6627;50.920;12.050;2024-03-23T02:33:03;8.70;99.90
13123;DHT22;6627;50.920;12.050;2024-03-23T02:35:31;8.70;99.90
13123;DHT22;6627;50.920;12.050;2024-03-23T02:37:58;8.70;99.90
13123;DHT22;6627;50.920;12.050;2024-03-23T02:40:28;8.80;99.90
13123;DHT22;6627;50.920;12.050;2024-03-23T02:42:55;8.80;99.90
13123;DHT22;6627;50.920;12.050;2024-03-23T02:45:22;8.80;99.90
13123;DHT22;6627;50.920;12.050;2024-03-23T02:47:48;8.70;99.90
13123;DHT22;6627;50.920;12.050;2024-03-23T02:50:18;8.70;99.90
13123;DHT22;6627;50.920;12.050;2024-03-23T02:52:44;8.70;99.90
13123;DHT22;6627;50.920;12.050;2024-03-23T02:55:12;8.70;99.90
13123;DHT22;6627;50.920;12.050;2024-03-23T02:57:39;8.70;99.90
13123;DHT22;6627;50.920;12.050;2024-03-23T03:00:07;8.70;99.90
13123;DHT22;6627;50.920;12.050;2024-03-23T03:02:35;8.70;99.90
13123;DHT22;6627;50.920;12.050;2024-03-23T03:05:04;8.80;99.90
13123;DHT22;6627;50.920;12.050;2024-03-23T03:07:31;8.80;99.90
13123;DHT22;6627;50.920;12.050;2024-03-23T03:09:58;8.70;99.90
13123;DHT22;6627;50.920;12.050;2024-03-23T03:12:24;8.70;99.90
13123;DHT22;6627;50.920;12.050;2024-03-23T03:14:54;8.70;99.90
13123;DHT22;6627;50.920;12.050;2024-03-23T03:17:20;8.80;99.90
13123;DHT22;6627;50.920;12.050;2024-03-23T03:19:47;8.80;99.90
13123;DHT22;6627;50.920;12.050;2024-03-23T03:22:13;8.80;99.90
13123;DHT22;6627;50.920;12.050;2024-03-23T03:24:41;8.80;99.90
13123;DHT22;6627;50.920;12.050;2024-03-23T03:27:08;8.80;99.90
13123;DHT22;6627;50.920;12.050;2024-03-23T03:29:35;8.80;99.90
13123;DHT22;6627;50.920;12.050;2024-03-23T03:32:03;8.80;99.90
13123;DHT22;6627;50.920;12.050;2024-03-23T03:34:31;8.80;99.90
13123;DHT22;6627;50.920;12.050;2024-03-23T03:36:57;8.90;99.90
13123;DHT22;6627;50.920;12.050;2024-03-23T03:39:25;8.90;99.90
13123;DHT22;6627;50.920;12.050;2024-03-23T03:41:52;8.90;99.90
13123;DHT22;6627;50.920;12.050;2024-03-23T03:44:20;8.90;99.90
13123;DHT22;6627;50.920;12.050;2024-03-23T03:46:46;8.90;99.90
13123;DHT22;6627;50.920;12.050;2024-03-23T03:49:14;8.90;99.90
13123;DHT22;6627;50.920;12.050;2024-03-23T03:51:41;8.90;99.90
13123;DHT22;6627;50.920;12.050;2024-03-23T03:54:08;9.00;99.90
13123;DHT22;6627;50.920;12.050;2024-03-23T03:56:34;9.00;99.90
13123;DHT22;6627;50.920;12.050;2024-03-23T03:59:03;9.00;99.90
13123;DHT22;6627;50.920;12.050;2024-03-23T04:01:29;9.00;99.90
13123;DHT22;6627;50.920;12.050;2024-03-23T04:03:56;9.00;99.90
13123;DHT22;6627;50.920;12.050;2024-03-23T04:06:24;9.00;99.90
13123;DHT22;6627;50.920;12.050;2024-03-23T04:08:51;9.00;99.90
13123;DHT22;6627;50.920;12.050;2024-03-23T04:11:17;9.00;99.90
13123;DHT22;6627;50.920;12.050;2024-03-23T04:13:45;9.00;99.90
13123;DHT22;6627;50.920;12.050;2024-03-23T04:16:11;9.00;99.90
13123;DHT22;6627;50.920;12.050;2024-03-23T04:18:38;9.00;99.90
13123;DHT22;6627;50.920;12.050;2024-03-23T04:21:05;9.00;99.90
13123;DHT22;6627;50.920;12.050;2024-03-23T04:23:34;9.00;99.90
13123;DHT22;6627;50.920;12.050;2024-03-23T04:26:03;9.00;99.90
13123;DHT22;6627;50.920;12.050;2024-03-23T04:28:31;9.00;99.90
13123;DHT22;6627;50.920;12.050;2024-03-23T04:33:25;8.90;99.90
13123;DHT22;6627;50.920;12.050;2024-03-23T04:35:51;8.90;99.90
13123;DHT22;6627;50.920;12.050;2024-03-23T04:38:18;8.90;99.90
13123;DHT22;6627;50.920;12.050;2024-03-23T04:40:54;8.90;99.90
13123;DHT22;6627;50.920;12.050;2024-03-23T04:43:21;8.90;99.90
13123;DHT22;6627;50.920;12.050;2024-03-23T04:45:49;8.80;99.90
13123;DHT22;6627;50.920;12.050;2024-03-23T04:48:16;8.80;99.90
13123;DHT22;6627;50.920;12.050;2024-03-23T04:50:44;8.90;99.90
13123;DHT22;6627;50.920;12.050;2024-03-23T04:53:11;8.90;99.90
13123;DHT22;6627;50.920;12.050;2024-03-23T04:55:39;8.90;99.90
13123;DHT22;6627;50.920;12.050;2024-03-23T04:58:07;8.90;99.90
13123;DHT22;6627;50.920;12.050;2024-03-23T05:00:34;8.90;99.90
13123;DHT22;6627;50.920;12.050;2024-03-23T05:03:01;8.90;99.90
13123;DHT22;6627;50.920;12.050;2024-03-23T05:05:27;8.90;99.90
13123;DHT22;6627;50.920;12.050;2024-03-23T05:07:55;8.90;99.90
13123;DHT22;6627;50.920;12.050;2024-03-23T05:10:21;8.90;99.90
13123;DHT22;6627;50.920;12.050;2024-03-23T05:15:17;8.90;99.90
13123;DHT22;6627;50.920;12.050;2024-03-23T05:17:44;8.90;99.90
13123;DHT22;6627;50.920;12.050;2024-03-23T05:20:10;8.90;99.90
13123;DHT22;6627;50.920;12.050;2024-03-23T05:22:39;8.90;99.90
13123;DHT22;6627;50.920;12.050;2024-03-23T05:25:07;8.90;99.90
13123;DHT22;6627;50.920;12.050;2024-03-23T05:27:35;8.90;99.90
13123;DHT22;6627;50.920;12.050;2024-03-23T05:30:03;8.90;99.90
13123;DHT22;6627;50.920;12.050;2024-03-23T05:32:33;8.90;99.90
13123;DHT22;6627;50.920;12.050;2024-03-23T05:35:00;8.90;99.90
13123;DHT22;6627;50.920;12.050;2024-03-23T05:37:27;9.00;99.90
13123;DHT22;6627;50.920;12.050;2024-03-23T05:39:54;8.90;99.90
13123;DHT22;6627;50.920;12.050;2024-03-23T05:42:20;9.00;99.90
13123;DHT22;6627;50.920;12.050;2024-03-23T05:44:47;8.90;99.90
13123;DHT22;6627;50.920;12.050;2024-03-23T05:47:14;8.90;99.90
13123;DHT22;6627;50.920;12.050;2024-03-23T05:52:12;8.90;99.90
13123;DHT22;6627;50.920;12.050;2024-03-23T05:57:09;8.90;99.90
13123;DHT22;6627;50.920;12.050;2024-03-23T05:59:38;8.80;99.90
13123;DHT22;6627;50.920;12.050;2024-03-23T06:02:04;8.80;99.90
13123;DHT22;6627;50.920;12.050;2024-03-23T06:04:31;8.70;99.90
13123;DHT22;6627;50.920;12.050;2024-03-23T06:06:59;8.80;99.90
13123;DHT22;6627;50.920;12.050;2024-03-23T06:09:26;8.80;99.90
13123;DHT22;6627;50.920;12.050;2024-03-23T06:11:53;8.80;99.90
13123;DHT22;6627;50.920;12.050;2024-03-23T06:14:20;8.80;99.90
13123;DHT22;6627;50.920;12.050;2024-03-23T06:16:47;8.70;99.90
13123;DHT22;6627;50.920;12.050;2024-03-23T06:19:15;8.60;99.90
13123;DHT22;6627;50.920;12.050;2024-03-23T06:21:43;8.70;99.90
13123;DHT22;6627;50.920;12.050;2024-03-23T06:24:12;8.70;99.90
13123;DHT22;6627;50.920;12.050;2024-03-23T06:26:38;8.80;99.90
13123;DHT22;6627;50.920;12.050;2024-03-23T06:29:06;8.80;99.90
13123;DHT22;6627;50.920;12.050;2024-03-23T06:31:32;8.90;99.90
13123;DHT22;6627;50.920;12.050;2024-03-23T06:33:59;9.00;99.90
13123;DHT22;6627;50.920;12.050;2024-03-23T06:36:25;9.00;99.90
13123;DHT22;6627;50.920;12.050;2024-03-23T06:38:52;9.00;99.90
13123;DHT22;6627;50.920;12.050;2024-03-23T06:41:21;9.00;99.90
13123;DHT22;6627;50.920;12.050;2024-03-23T06:43:48;9.10;99.90
13123;DHT22;6627;50.920;12.050;2024-03-23T06:46:15;9.10;99.90
13123;DHT22;6627;50.920;12.050;2024-03-23T06:48:42;9.10;99.90
13123;DHT22;6627;50.920;12.050;2024-03-23T06:51:11;9.20;99.90
13123;DHT22;6627;50.920;12.050;2024-03-23T06:53:38;9.20;99.90
13123;DHT22;6627;50.920;12.050;2024-03-23T06:56:05;9.20;99.90
13123;DHT22;6627;50.920;12.050;2024-03-23T06:58:33;9.30;99.90
13123;DHT22;6627;50.920;12.050;2024-03-23T07:01:01;9.30;99.90
13123;DHT22;6627;50.920;12.050;2024-03-23T07:03:27;9.30;99.90
13123;DHT22;6627;50.920;12.050;2024-03-23T07:05:58;9.30;99.90
13123;DHT22;6627;50.920;12.050;2024-03-23T07:10:52;9.40;99.90
13123;DHT22;6627;50.920;12.050;2024-03-23T07:13:18;9.40;99.90
13123;DHT22;6627;50.920;12.050;2024-03-23T07:15:52;9.50;99.90
13123;DHT22;6627;50.920;12.050;2024-03-23T07:18:18;9.50;99.90
13123;DHT22;6627;50.920;12.050;2024-03-23T07:20:52;9.50;99.90
13123;DHT22;6627;50.920;12.050;2024-03-23T07:23:19;9.50;99.90
13123;DHT22;6627;50.920;12.050;2024-03-23T07:25:56;9.50;99.90
13123;DHT22;6627;50.920;12.050;2024-03-23T07:28:22;9.40;99.90
13123;DHT22;6627;50.920;12.050;2024-03-23T07:31:02;9.40;99.90
13123;DHT22;6627;50.920;12.050;2024-03-23T07:33:29;9.30;99.90
13123;DHT22;6627;50.920;12.050;2024-03-23T07:35:57;9.30;99.90
13123;DHT22;6627;50.920;12.050;2024-03-23T07:38:26;9.30;99.90
13123;DHT22;6627;50.920;12.050;2024-03-23T07:41:03;9.30;99.90
13123;DHT22;6627;50.920;12.050;2024-03-23T07:43:30;9.30;99.90
13123;DHT22;6627;50.920;12.050;2024-03-23T07:45:57;9.40;99.90
13123;DHT22;6627;50.920;12.050;2024-03-23T07:48:25;9.30;99.90
13123;DHT22;6627;50.920;12.050;2024-03-23T07:51:00;9.30;99.90
13123;DHT22;6627;50.920;12.050;2024-03-23T07:53:27;9.30;99.90
13123;DHT22;6627;50.920;12.050;2024-03-23T07:55:55;9.10;99.90
13123;DHT22;6627;50.920;12.050;2024-03-23T08:03:18;8.20;99.90
13123;DHT22;6627;50.920;12.050;2024-03-23T08:05:47;7.60;99.90
13123;DHT22;6627;50.920;12.050;2024-03-23T08:08:15;7.30;99.90
13123;DHT22;6627;50.920;12.050;2024-03-23T08:10:48;7.00;99.90
13123;DHT22;6627;50.920;12.050;2024-03-23T08:13:16;6.80;99.90
13123;DHT22;6627;50.920;12.050;2024-03-23T08:18:12;6.50;99.90
13123;DHT22;6627;50.920;12.050;2024-03-23T08:20:39;6.40;99.90
13123;DHT22;6627;50.920;12.050;2024-03-23T08:25:35;6.20;99.90
13123;DHT22;6627;50.920;12.050;2024-03-23T08:30:29;5.90;99.90
13123;DHT22;6627;50.920;12.050;2024-03-23T08:35:23;5.60;99.90
13123;DHT22;6627;50.920;12.050;2024-03-23T08:37:50;5.60;99.90
13123;DHT22;6627;50.920;12.050;2024-03-23T08:40:18;5.60;99.90
13123;DHT22;6627;50.920;12.050;2024-03-23T08:42:45;5.60;99.90
13123;DHT22;6627;50.920;12.050;2024-03-23T08:45:11;5.60;99.90
13123;DHT22;6627;50.920;12.050;2024-03-23T08:47:39;5.40;99.90
13123;DHT22;6627;50.920;12.050;2024-03-23T08:52:33;5.30;99.90
13123;DHT22;6627;50.920;12.050;2024-03-23T08:57:29;5.20;99.90
13123;DHT22;6627;50.920;12.050;2024-03-23T08:59:55;5.20;99.90
13123;DHT22;6627;50.920;12.050;2024-03-23T09:02:23;5.20;99.90
13123;DHT22;6627;50.920;12.050;2024-03-23T09:04:49;5.30;99.90
13123;DHT22;6627;50.920;12.050;2024-03-23T09:07:16;5.30;99.90
13123;DHT22;6627;50.920;12.050;2024-03-23T09:09:43;5.20;99.90
13123;DHT22;6627;50.920;12.050;2024-03-23T09:12:10;5.20;99.90
13123;DHT22;6627;50.920;12.050;2024-03-23T09:17:05;5.10;99.90
13123;DHT22;6627;50.920;12.050;2024-03-23T09:19:31;5.20;99.90
13123;DHT22;6627;50.920;12.050;2024-03-23T09:24:25;5.10;99.90
13123;DHT22;6627;50.920;12.050;2024-03-23T09:26:54;5.10;99.90
13123;DHT22;6627;50.920;12.050;2024-03-23T09:29:20;5.20;99.90
13123;DHT22;6627;50.920;12.050;2024-03-23T09:31:49;5.30;99.90
13123;DHT22;6627;50.920;12.050;2024-03-23T09:36:42;5.30;99.90
13123;DHT22;6627;50.920;12.050;2024-03-23T09:39:09;5.30;99.90
13123;DHT22;6627;50.920;12.050;2024-03-23T09:41:36;5.30;99.90
13123;DHT22;6627;50.920;12.050;2024-03-23T09:44:02;5.30;99.90
13123;DHT22;6627;50.920;12.050;2024-03-23T09:46:31;5.20;99.90
13123;DHT22;6627;50.920;12.050;2024-03-23T09:49:01;5.20;99.90
13123;DHT22;6627;50.920;12.050;2024-03-23T09:53:57;5.10;99.90
13123;DHT22;6627;50.920;12.050;2024-03-23T09:56:24;5.10;99.90
13123;DHT22;6627;50.920;12.050;2024-03-23T09:58:50;5.10;99.90
13123;DHT22;6627;50.920;12.050;2024-03-23T10:01:18;5.20;99.90
13123;DHT22;6627;50.920;12.050;2024-03-23T10:06:14;5.10;99.90
13123;DHT22;6627;50.920;12.050;2024-03-23T10:08:47;5.10;99.90
13123;DHT22;6627;50.920;12.050;2024-03-23T10:11:15;5.00;99.90
13123;DHT22;6627;50.920;12.050;2024-03-23T10:13:43;5.10;99.90
13123;DHT22;6627;50.920;12.050;2024-03-23T10:16:12;5.20;99.90
13123;DHT22;6627;50.920;12.050;2024-03-23T10:18:47;5.30;99.90
13123;DHT22;6627;50.920;12.050;2024-03-23T10:21:16;5.20;99.90
13123;DHT22;6627;50.920;12.050;2024-03-23T10:23:44;5.10;99.90
13123;DHT22;6627;50.920;12.050;2024-03-23T10:26:13;5.20;99.90
13123;DHT22;6627;50.920;12.050;2024-03-23T10:28:52;5.20;99.90
13123;DHT22;6627;50.920;12.050;2024-03-23T10:31:21;5.20;99.90
13123;DHT22;6627;50.920;12.050;2024-03-23T10:33:47;5.30;99.90
13123;DHT22;6627;50.920;12.050;2024-03-23T10:36:18;5.40;99.90
13123;DHT22;6627;50.920;12.050;2024-03-23T10:38:46;5.40;99.90
13123;DHT22;6627;50.920;12.050;2024-03-23T10:41:16;5.40;99.90
13123;DHT22;6627;50.920;12.050;2024-03-23T10:43:44;5.30;99.90
13123;DHT22;6627;50.920;12.050;2024-03-23T10:46:13;5.50;99.90
13123;DHT22;6627;50.920;12.050;2024-03-23T10:48:40;5.50;99.90
13123;DHT22;6627;50.920;12.050;2024-03-23T10:53:52;5.50;99.90
13123;DHT22;6627;50.920;12.050;2024-03-23T10:56:22;5.50;99.90
13123;DHT22;6627;50.920;12.050;2024-03-23T10:58:49;5.50;99.90
13123;DHT22;6627;50.920;12.050;2024-03-23T11:01:18;5.50;99.90
13123;DHT22;6627;50.920;12.050;2024-03-23T11:03:45;5.50;99.90
13123;DHT22;6627;50.920;12.050;2024-03-23T11:06:35;5.60;99.90
13123;DHT22;6627;50.920;12.050;2024-03-23T11:09:04;5.70;99.90
13123;DHT22;6627;50.920;12.050;2024-03-23T11:11:52;5.80;99.90
13123;DHT22;6627;50.920;12.050;2024-03-23T11:14:22;5.80;99.90
13123;DHT22;6627;50.920;12.050;2024-03-23T11:17:08;6.00;99.90
13123;DHT22;6627;50.920;12.050;2024-03-23T11:22:05;6.30;99.90
13123;DHT22;6627;50.920;12.050;2024-03-23T11:24:32;6.30;99.90
13123;DHT22;6627;50.920;12.050;2024-03-23T11:27:01;6.30;99.90
13123;DHT22;6627;50.920;12.050;2024-03-23T11:29:30;6.40;99.90
13123;DHT22;6627;50.920;12.050;2024-03-23T11:31:57;6.70;99.90
13123;DHT22;6627;50.920;12.050;2024-03-23T11:34:24;6.80;99.90
13123;DHT22;6627;50.920;12.050;2024-03-23T11:37:04;7.10;99.90
13123;DHT22;6627;50.920;12.050;2024-03-23T11:39:30;7.10;99.90
13123;DHT22;6627;50.920;12.050;2024-03-23T11:41:59;7.10;99.90
13123;DHT22;6627;50.920;12.050;2024-03-23T11:44:27;7.10;99.90
13123;DHT22;6627;50.920;12.050;2024-03-23T11:47:07;6.90;99.90
13123;DHT22;6627;50.920;12.050;2024-03-23T11:49:34;7.00;99.90
13123;DHT22;6627;50.920;12.050;2024-03-23T11:54:36;7.20;99.90
13123;DHT22;6627;50.920;12.050;2024-03-23T11:57:08;7.40;99.90
13123;DHT22;6627;50.920;12.050;2024-03-23T11:59:35;7.50;99.90
13123;DHT22;6627;50.920;12.050;2024-03-23T12:02:08;7.70;99.90
13123;DHT22;6627;50.920;12.050;2024-03-23T12:04:37;7.70;99.90
13123;DHT22;6627;50.920;12.050;2024-03-23T12:07:10;7.80;99.90
13123;DHT22;6627;50.920;12.050;2024-03-23T12:09:38;7.80;99.90
13123;DHT22;6627;50.920;12.050;2024-03-23T12:14:35;7.80;99.90
13123;DHT22;6627;50.920;12.050;2024-03-23T12:17:12;7.80;99.90
13123;DHT22;6627;50.920;12.050;2024-03-23T12:19:39;7.70;99.90
13123;DHT22;6627;50.920;12.050;2024-03-23T12:22:08;7.80;99.90
13123;DHT22;6627;50.920;12.050;2024-03-23T12:24:35;7.90;99.90
13123;DHT22;6627;50.920;12.050;2024-03-23T12:27:03;8.00;99.90
13123;DHT22;6627;50.920;12.050;2024-03-23T12:29:32;8.10;99.90
13123;DHT22;6627;50.920;12.050;2024-03-23T12:32:00;8.40;99.90
13123;DHT22;6627;50.920;12.050;2024-03-23T12:34:27;8.60;99.90
13123;DHT22;6627;50.920;12.050;2024-03-23T12:36:56;8.80;99.90
13123;DHT22;6627;50.920;12.050;2024-03-23T12:39:22;9.00;99.90
13123;DHT22;6627;50.920;12.050;2024-03-23T12:41:50;9.10;99.90
13123;DHT22;6627;50.920;12.050;2024-03-23T12:44:18;9.00;99.90
13123;DHT22;6627;50.920;12.050;2024-03-23T12:46:47;9.00;99.90
13123;DHT22;6627;50.920;12.050;2024-03-23T12:51:47;8.90;99.90
13123;DHT22;6627;50.920;12.050;2024-03-23T12:54:19;8.90;99.90
13123;DHT22;6627;50.920;12.050;2024-03-23T12:56:46;8.90;99.90
13123;DHT22;6627;50.920;12.050;2024-03-23T12:59:13;8.70;99.90
13123;DHT22;6627;50.920;12.050;2024-03-23T13:01:40;8.70;99.90
13123;DHT22;6627;50.920;12.050;2024-03-23T13:04:08;8.70;99.90
13123;DHT22;6627;50.920;12.050;2024-03-23T13:06:35;8.70;99.90
13123;DHT22;6627;50.920;12.050;2024-03-23T13:09:02;9.00;99.90
13123;DHT22;6627;50.920;12.050;2024-03-23T13:11:29;9.20;99.90
13123;DHT22;6627;50.920;12.050;2024-03-23T13:13:57;9.20;99.90
13123;DHT22;6627;50.920;12.050;2024-03-23T13:16:24;9.00;99.90
13123;DHT22;6627;50.920;12.050;2024-03-23T13:18:51;8.90;99.90
13123;DHT22;6627;50.920;12.050;2024-03-23T13:21:19;8.90;99.90
13123;DHT22;6627;50.920;12.050;2024-03-23T13:23:47;9.10;99.90
13123;DHT22;6627;50.920;12.050;2024-03-23T13:26:16;9.50;99.90
13123;DHT22;6627;50.920;12.050;2024-03-23T13:28:43;9.50;99.90
13123;DHT22;6627;50.920;12.050;2024-03-23T13:31:11;9.70;99.90
13123;DHT22;6627;50.920;12.050;2024-03-23T13:33:37;9.60;99.90
13123;DHT22;6627;50.920;12.050;2024-03-23T13:38:34;9.70;99.90
13123;DHT22;6627;50.920;12.050;2024-03-23T13:41:03;9.60;99.90
13123;DHT22;6627;50.920;12.050;2024-03-23T13:43:30;9.70;99.90
13123;DHT22;6627;50.920;12.050;2024-03-23T13:45:58;9.70;99.90
13123;DHT22;6627;50.920;12.050;2024-03-23T13:48:26;9.60;99.90
13123;DHT22;6627;50.920;12.050;2024-03-23T13:50:58;9.70;99.90
13123;DHT22;6627;50.920;12.050;2024-03-23T13:53:24;9.70;99.90
13123;DHT22;6627;50.920;12.050;2024-03-23T13:55:53;9.70;99.90
13123;DHT22;6627;50.920;12.050;2024-03-23T13:58:20;9.80;99.90
13123;DHT22;6627;50.920;12.050;2024-03-23T14:00:48;10.00;99.90
13123;DHT22;6627;50.920;12.050;2024-03-23T14:03:14;10.00;99.90
13123;DHT22;6627;50.920;12.050;2024-03-23T14:05:44;9.90;99.90
13123;DHT22;6627;50.920;12.050;2024-03-23T14:08:11;10.10;99.90
13123;DHT22;6627;50.920;12.050;2024-03-23T14:10:40;9.80;99.90
13123;DHT22;6627;50.920;12.050;2024-03-23T14:13:09;9.80;99.90
13123;DHT22;6627;50.920;12.050;2024-03-23T14:15:36;9.90;99.90
13123;DHT22;6627;50.920;12.050;2024-03-23T14:18:03;10.10;99.90
13123;DHT22;6627;50.920;12.050;2024-03-23T14:20:30;10.30;99.90
13123;DHT22;6627;50.920;12.050;2024-03-23T14:22:56;10.40;99.90
13123;DHT22;6627;50.920;12.050;2024-03-23T14:25:24;10.10;99.90
13123;DHT22;6627;50.920;12.050;2024-03-23T14:27:53;10.10;99.90
13123;DHT22;6627;50.920;12.050;2024-03-23T14:30:21;10.10;99.90
13123;DHT22;6627;50.920;12.050;2024-03-23T14:32:48;9.80;99.90
13123;DHT22;6627;50.920;12.050;2024-03-23T14:35:15;9.90;99.90
13123;DHT22;6627;50.920;12.050;2024-03-23T14:37:42;10.10;99.90
13123;DHT22;6627;50.920;12.050;2024-03-23T14:40:10;10.30;99.90
13123;DHT22;6627;50.920;12.050;2024-03-23T14:42:38;10.00;99.90
13123;DHT22;6627;50.920;12.050;2024-03-23T14:47:43;9.80;99.90
13123;DHT22;6627;50.920;12.050;2024-03-23T14:50:10;9.80;99.90
13123;DHT22;6627;50.920;12.050;2024-03-23T14:52:42;9.70;99.90
13123;DHT22;6627;50.920;12.050;2024-03-23T14:55:11;9.80;99.90
13123;DHT22;6627;50.920;12.050;2024-03-23T14:57:37;9.70;99.90
13123;DHT22;6627;50.920;12.050;2024-03-23T15:00:07;9.70;99.90
13123;DHT22;6627;50.920;12.050;2024-03-23T15:02:36;9.60;99.90
13123;DHT22;6627;50.920;12.050;2024-03-23T15:05:06;9.60;99.90
13123;DHT22;6627;50.920;12.050;2024-03-23T15:07:35;9.50;99.90
13123;DHT22;6627;50.920;12.050;2024-03-23T15:10:04;9.50;99.90
13123;DHT22;6627;50.920;12.050;2024-03-23T15:19:55;6.60;99.90
13123;DHT22;6627;50.920;12.050;2024-03-23T15:22:23;5.90;99.90
13123;DHT22;6627;50.920;12.050;2024-03-23T15:24:52;5.90;99.90
13123;DHT22;6627;50.920;12.050;2024-03-23T15:27:18;6.00;99.90
13123;DHT22;6627;50.920;12.050;2024-03-23T15:29:45;6.00;99.90
13123;DHT22;6627;50.920;12.050;2024-03-23T15:32:12;6.10;99.90
13123;DHT22;6627;50.920;12.050;2024-03-23T15:34:40;6.20;99.90
13123;DHT22;6627;50.920;12.050;2024-03-23T15:37:06;6.50;99.90
13123;DHT22;6627;50.920;12.050;2024-03-23T15:39:34;6.80;99.90
13123;DHT22;6627;50.920;12.050;2024-03-23T15:42:01;6.90;99.90
13123;DHT22;6627;50.920;12.050;2024-03-23T15:44:30;7.10;99.90
13123;DHT22;6627;50.920;12.050;2024-03-23T15:46:56;7.20;99.90
13123;DHT22;6627;50.920;12.050;2024-03-23T15:49:23;7.40;99.90
13123;DHT22;6627;50.920;12.050;2024-03-23T15:51:51;7.40;99.90
13123;DHT22;6627;50.920;12.050;2024-03-23T15:54:19;7.60;99.90
13123;DHT22;6627;50.920;12.050;2024-03-23T15:59:17;7.60;99.90
13123;DHT22;6627;50.920;12.050;2024-03-23T16:01:43;7.70;99.90
13123;DHT22;6627;50.920;12.050;2024-03-23T16:04:11;7.70;99.90
13123;DHT22;6627;50.920;12.050;2024-03-23T16:06:38;7.80;99.90
13123;DHT22;6627;50.920;12.050;2024-03-23T16:09:07;7.80;99.90
13123;DHT22;6627;50.920;12.050;2024-03-23T16:11:35;7.80;99.90
13123;DHT22;6627;50.920;12.050;2024-03-23T16:14:03;7.70;99.90
13123;DHT22;6627;50.920;12.050;2024-03-23T16:16:30;7.70;99.90
13123;DHT22;6627;50.920;12.050;2024-03-23T16:18:57;7.60;99.90
13123;DHT22;6627;50.920;12.050;2024-03-23T16:21:23;7.70;99.90
13123;DHT22;6627;50.920;12.050;2024-03-23T16:23:50;7.60;99.90
13123;DHT22;6627;50.920;12.050;2024-03-23T16:26:17;7.60;99.90
13123;DHT22;6627;50.920;12.050;2024-03-23T16:28:44;7.60;99.90
13123;DHT22;6627;50.920;12.050;2024-03-23T16:31:13;7.50;99.90
13123;DHT22;6627;50.920;12.050;2024-03-23T16:33:41;7.40;99.90
13123;DHT22;6627;50.920;12.050;2024-03-23T16:36:09;7.50;99.90
13123;DHT22;6627;50.920;12.050;2024-03-23T16:38:39;7.50;99.90
13123;DHT22;6627;50.920;12.050;2024-03-23T16:41:07;7.40;99.90
13123;DHT22;6627;50.920;12.050;2024-03-23T16:43:36;7.40;99.90
13123;DHT22;6627;50.920;12.050;2024-03-23T16:46:04;7.30;99.90
13123;DHT22;6627;50.920;12.050;2024-03-23T16:48:33;7.20;99.90
13123;DHT22;6627;50.920;12.050;2024-03-23T16:51:01;7.20;99.90
13123;DHT22;6627;50.920;12.050;2024-03-23T16:53:30;7.30;99.90
13123;DHT22;6627;50.920;12.050;2024-03-23T16:55:58;7.20;99.90
13123;DHT22;6627;50.920;12.050;2024-03-23T16:58:26;7.20;99.90
13123;DHT22;6627;50.920;12.050;2024-03-23T17:00:53;7.20;99.90
13123;DHT22;6627;50.920;12.050;2024-03-23T17:03:22;7.10;99.90
13123;DHT22;6627;50.920;12.050;2024-03-23T17:05:50;7.20;99.90
13123;DHT22;6627;50.920;12.050;2024-03-23T17:08:18;7.10;99.90
13123;DHT22;6627;50.920;12.050;2024-03-23T17:10:44;7.10;99.90
13123;DHT22;6627;50.920;12.050;2024-03-23T17:13:11;7.00;99.90
13123;DHT22;6627;50.920;12.050;2024-03-23T17:15:42;7.00;99.90
13123;DHT22;6627;50.920;12.050;2024-03-23T17:18:10;6.90;99.90
13123;DHT22;6627;50.920;12.050;2024-03-23T17:20:38;6.90;99.90
13123;DHT22;6627;50.920;12.050;2024-03-23T17:23:07;6.90;99.90
13123;DHT22;6627;50.920;12.050;2024-03-23T17:25:33;6.90;99.90
13123;DHT22;6627;50.920;12.050;2024-03-23T17:28:00;6.90;99.90
13123;DHT22;6627;50.920;12.050;2024-03-23T17:30:27;6.80;99.90
13123;DHT22;6627;50.920;12.050;2024-03-23T17:32:54;6.80;99.90
13123;DHT22;6627;50.920;12.050;2024-03-23T17:35:22;6.70;99.90
13123;DHT22;6627;50.920;12.050;2024-03-23T17:40:18;6.60;99.90
13123;DHT22;6627;50.920;12.050;2024-03-23T17:42:44;6.50;99.90
13123;DHT22;6627;50.920;12.050;2024-03-23T17:45:11;6.50;99.90
13123;DHT22;6627;50.920;12.050;2024-03-23T17:47:40;6.60;99.90
13123;DHT22;6627;50.920;12.050;2024-03-23T17:50:09;6.50;99.90
13123;DHT22;6627;50.920;12.050;2024-03-23T17:52:36;6.50;99.90
13123;DHT22;6627;50.920;12.050;2024-03-23T17:55:04;6.30;99.90
13123;DHT22;6627;50.920;12.050;2024-03-23T17:57:33;6.30;99.90
13123;DHT22;6627;50.920;12.050;2024-03-23T18:00:00;6.40;99.90
13123;DHT22;6627;50.920;12.050;2024-03-23T18:04:54;6.30;99.90